sensor_id;sensor_type;location;lat;lon;timestamp;temperature;humidity
38684;DHT22;24910;53.248;-6.134;2023-04-06T00:01:21;13.10;76.60
38684;DHT22;24910;53.248;-6.134;2023-04-06T00:03:50;13.10;76.60
38684;DHT22;24910;53.248;-6.134;2023-04-06T00:06:19;13.10;76.60
38684;DHT22;24910;53.248;-6.134;2023-04-06T00:08:49;13.10;76.60
38684;DHT22;24910;53.248;-6.134;2023-04-06T00:11:18;13.10;76.60
38684;DHT22;24910;53.248;-6.134;2023-04-06T00:13:47;13.10;76.60
38684;DHT22;24910;53.248;-6.134;2023-04-06T00:16:16;13.10;76.60
38684;DHT22;24910;53.248;-6.134;2023-04-06T00:18:47;13.10;76.50
38684;DHT22;24910;53.248;-6.134;2023-04-06T00:21:16;13.10;76.30
38684;DHT22;24910;53.248;-6.134;2023-04-06T00:23:45;13.10;76.30
38684;DHT22;24910;53.248;-6.134;2023-04-06T00:26:14;13.10;76.30
38684;DHT22;24910;53.248;-6.134;2023-04-06T00:28:46;13.00;76.20
38684;DHT22;24910;53.248;-6.134;2023-04-06T00:31:15;13.00;76.00
38684;DHT22;24910;53.248;-6.134;2023-04-06T00:33:44;13.00;75.90
38684;DHT22;24910;53.248;-6.134;2023-04-06T00:36:14;13.00;75.80
38684;DHT22;24910;53.248;-6.134;2023-04-06T00:38:43;13.00;75.70
38684;DHT22;24910;53.248;-6.134;2023-04-06T00:41:13;13.00;75.70
38684;DHT22;24910;53.248;-6.134;2023-04-06T00:43:42;12.90;75.70
38684;DHT22;24910;53.248;-6.134;2023-04-06T00:46:11;12.90;76.60
38684;DHT22;24910;53.248;-6.134;2023-04-06T00:48:40;12.90;75.80
38684;DHT22;24910;53.248;-6.134;2023-04-06T00:51:10;12.90;75.80
38684;DHT22;24910;53.248;-6.134;2023-04-06T00:53:40;12.80;75.80
38684;DHT22;24910;53.248;-6.134;2023-04-06T00:56:11;12.80;76.50
38684;DHT22;24910;53.248;-6.134;2023-04-06T00:58:52;12.80;75.70
38684;DHT22;24910;53.248;-6.134;2023-04-06T01:01:21;12.80;75.60
38684;DHT22;24910;53.248;-6.134;2023-04-06T01:03:54;12.80;75.50
38684;DHT22;24910;53.248;-6.134;2023-04-06T01:06:24;12.70;75.40
38684;DHT22;24910;53.248;-6.134;2023-04-06T01:09:00;12.70;75.20
38684;DHT22;24910;53.248;-6.134;2023-04-06T01:11:29;12.70;75.30
38684;DHT22;24910;53.248;-6.134;2023-04-06T01:14:00;12.70;75.30
38684;DHT22;24910;53.248;-6.134;2023-04-06T01:16:50;12.70;75.20
38684;DHT22;24910;53.248;-6.134;2023-04-06T01:19:24;12.50;75.20
38684;DHT22;24910;53.248;-6.134;2023-04-06T01:21:54;12.50;75.20
38684;DHT22;24910;53.248;-6.134;2023-04-06T01:24:33;12.50;75.20
38684;DHT22;24910;53.248;-6.134;2023-04-06T01:27:08;12.50;75.30
38684;DHT22;24910;53.248;-6.134;2023-04-06T01:30:00;12.50;75.30
38684;DHT22;24910;53.248;-6.134;2023-04-06T01:32:53;12.50;75.40
38684;DHT22;24910;53.248;-6.134;2023-04-06T01:35:45;12.60;75.50
38684;DHT22;24910;53.248;-6.134;2023-04-06T01:38:20;12.50;75.40
38684;DHT22;24910;53.248;-6.134;2023-04-06T01:40:51;12.50;75.50
38684;DHT22;24910;53.248;-6.134;2023-04-06T01:43:22;12.50;75.50
38684;DHT22;24910;53.248;-6.134;2023-04-06T01:46:02;12.50;75.40
38684;DHT22;24910;53.248;-6.134;2023-04-06T01:48:35;12.50;75.40
38684;DHT22;24910;53.248;-6.134;2023-04-06T01:51:28;12.50;75.40
38684;DHT22;24910;53.248;-6.134;2023-04-06T01:54:03;12.50;75.50
38684;DHT22;24910;53.248;-6.134;2023-04-06T01:56:54;12.50;75.60
38684;DHT22;24910;53.248;-6.134;2023-04-06T01:59:29;12.40;75.70
38684;DHT22;24910;53.248;-6.134;2023-04-06T02:02:01;12.40;75.80
38684;DHT22;24910;53.248;-6.134;2023-04-06T02:04:32;12.40;75.90
38684;DHT22;24910;53.248;-6.134;2023-04-06T02:07:09;12.50;76.00
38684;DHT22;24910;53.248;-6.134;2023-04-06T02:09:38;12.40;76.20
38684;DHT22;24910;53.248;-6.134;2023-04-06T02:12:14;12.50;76.40
38684;DHT22;24910;53.248;-6.134;2023-04-06T02:14:43;12.40;76.60
38684;DHT22;24910;53.248;-6.134;2023-04-06T02:17:14;12.40;76.80
38684;DHT22;24910;53.248;-6.134;2023-04-06T02:19:44;12.40;77.10
38684;DHT22;24910;53.248;-6.134;2023-04-06T02:22:13;12.40;77.30
38684;DHT22;24910;53.248;-6.134;2023-04-06T02:24:42;12.40;77.30
38684;DHT22;24910;53.248;-6.134;2023-04-06T02:27:11;12.40;77.50
38684;DHT22;24910;53.248;-6.134;2023-04-06T02:29:41;12.40;77.50
38684;DHT22;24910;53.248;-6.134;2023-04-06T02:32:11;12.40;77.40
38684;DHT22;24910;53.248;-6.134;2023-04-06T02:34:40;12.40;77.50
38684;DHT22;24910;53.248;-6.134;2023-04-06T02:37:10;12.40;77.50
38684;DHT22;24910;53.248;-6.134;2023-04-06T02:39:39;12.40;77.60
38684;DHT22;24910;53.248;-6.134;2023-04-06T02:42:09;12.40;77.70
38684;DHT22;24910;53.248;-6.134;2023-04-06T02:44:38;12.40;77.60
38684;DHT22;24910;53.248;-6.134;2023-04-06T02:47:10;12.30;77.50
38684;DHT22;24910;53.248;-6.134;2023-04-06T02:49:41;12.40;77.60
38684;DHT22;24910;53.248;-6.134;2023-04-06T02:52:12;12.40;77.50
38684;DHT22;24910;53.248;-6.134;2023-04-06T02:54:41;12.40;77.50
38684;DHT22;24910;53.248;-6.134;2023-04-06T02:57:10;12.40;77.60
38684;DHT22;24910;53.248;-6.134;2023-04-06T02:59:43;12.40;77.50
38684;DHT22;24910;53.248;-6.134;2023-04-06T03:02:19;12.40;77.50
38684;DHT22;24910;53.248;-6.134;2023-04-06T03:04:48;12.30;77.50
38684;DHT22;24910;53.248;-6.134;2023-04-06T03:07:26;12.40;77.70
38684;DHT22;24910;53.248;-6.134;2023-04-06T03:09:55;12.30;77.60
38684;DHT22;24910;53.248;-6.134;2023-04-06T03:12:24;12.30;77.80
38684;DHT22;24910;53.248;-6.134;2023-04-06T03:15:16;12.20;77.90
38684;DHT22;24910;53.248;-6.134;2023-04-06T03:17:52;12.20;77.90
38684;DHT22;24910;53.248;-6.134;2023-04-06T03:20:36;12.20;78.00
38684;DHT22;24910;53.248;-6.134;2023-04-06T03:23:05;12.20;78.00
38684;DHT22;24910;53.248;-6.134;2023-04-06T03:25:38;12.20;78.00
38684;DHT22;24910;53.248;-6.134;2023-04-06T03:28:10;12.20;78.10
38684;DHT22;24910;53.248;-6.134;2023-04-06T03:30:58;12.10;78.20
38684;DHT22;24910;53.248;-6.134;2023-04-06T03:33:46;12.10;78.50
38684;DHT22;24910;53.248;-6.134;2023-04-06T03:36:35;12.00;78.50
38684;DHT22;24910;53.248;-6.134;2023-04-06T03:39:04;12.10;78.70
38684;DHT22;24910;53.248;-6.134;2023-04-06T03:41:38;12.10;78.70
38684;DHT22;24910;53.248;-6.134;2023-04-06T03:44:28;12.00;78.70
38684;DHT22;24910;53.248;-6.134;2023-04-06T03:46:58;12.10;78.80
38684;DHT22;24910;53.248;-6.134;2023-04-06T03:49:28;12.00;78.90
38684;DHT22;24910;53.248;-6.134;2023-04-06T03:51:58;12.10;79.00
38684;DHT22;24910;53.248;-6.134;2023-04-06T03:54:29;12.00;78.90
38684;DHT22;24910;53.248;-6.134;2023-04-06T03:56:58;12.00;78.90
38684;DHT22;24910;53.248;-6.134;2023-04-06T03:59:27;12.10;78.90
38684;DHT22;24910;53.248;-6.134;2023-04-06T04:01:56;12.10;78.90
38684;DHT22;24910;53.248;-6.134;2023-04-06T04:04:25;12.00;78.80
38684;DHT22;24910;53.248;-6.134;2023-04-06T04:06:56;12.00;78.70
38684;DHT22;24910;53.248;-6.134;2023-04-06T04:09:25;12.00;78.70
38684;DHT22;24910;53.248;-6.134;2023-04-06T04:11:56;12.00;78.80
38684;DHT22;24910;53.248;-6.134;2023-04-06T04:14:25;11.90;78.60
38684;DHT22;24910;53.248;-6.134;2023-04-06T04:16:54;11.90;78.50
38684;DHT22;24910;53.248;-6.134;2023-04-06T04:19:23;11.90;78.60
38684;DHT22;24910;53.248;-6.134;2023-04-06T04:21:53;11.90;78.70
38684;DHT22;24910;53.248;-6.134;2023-04-06T04:24:32;11.90;78.60
38684;DHT22;24910;53.248;-6.134;2023-04-06T04:27:01;11.90;78.50
38684;DHT22;24910;53.248;-6.134;2023-04-06T04:29:32;11.80;78.40
38684;DHT22;24910;53.248;-6.134;2023-04-06T04:32:05;11.80;78.50
38684;DHT22;24910;53.248;-6.134;2023-04-06T04:34:35;11.70;78.40
38684;DHT22;24910;53.248;-6.134;2023-04-06T04:37:10;11.70;78.20
38684;DHT22;24910;53.248;-6.134;2023-04-06T04:39:59;11.70;78.10
38684;DHT22;24910;53.248;-6.134;2023-04-06T04:42:31;11.70;78.00
38684;DHT22;24910;53.248;-6.134;2023-04-06T04:45:02;11.70;78.00
38684;DHT22;24910;53.248;-6.134;2023-04-06T04:47:38;11.70;77.90
38684;DHT22;24910;53.248;-6.134;2023-04-06T04:50:08;11.70;77.70
38684;DHT22;24910;53.248;-6.134;2023-04-06T04:52:41;11.70;77.70
38684;DHT22;24910;53.248;-6.134;2023-04-06T04:55:18;11.70;77.50
38684;DHT22;24910;53.248;-6.134;2023-04-06T04:57:50;11.70;77.50
38684;DHT22;24910;53.248;-6.134;2023-04-06T05:00:24;11.70;77.40
38684;DHT22;24910;53.248;-6.134;2023-04-06T05:02:57;11.70;77.20
38684;DHT22;24910;53.248;-6.134;2023-04-06T05:05:29;11.70;77.10
38684;DHT22;24910;53.248;-6.134;2023-04-06T05:07:59;11.70;77.00
38684;DHT22;24910;53.248;-6.134;2023-04-06T05:10:43;11.70;76.90
38684;DHT22;24910;53.248;-6.134;2023-04-06T05:13:13;11.70;76.90
38684;DHT22;24910;53.248;-6.134;2023-04-06T05:15:44;11.70;76.90
38684;DHT22;24910;53.248;-6.134;2023-04-06T05:18:23;11.70;77.00
38684;DHT22;24910;53.248;-6.134;2023-04-06T05:20:53;11.70;76.90
38684;DHT22;24910;53.248;-6.134;2023-04-06T05:23:29;11.70;77.00
38684;DHT22;24910;53.248;-6.134;2023-04-06T05:26:03;11.70;77.10
38684;DHT22;24910;53.248;-6.134;2023-04-06T05:28:33;11.60;77.10
38684;DHT22;24910;53.248;-6.134;2023-04-06T05:31:04;11.70;77.20
38684;DHT22;24910;53.248;-6.134;2023-04-06T05:33:43;11.60;77.10
38684;DHT22;24910;53.248;-6.134;2023-04-06T05:36:17;11.60;77.20
38684;DHT22;24910;53.248;-6.134;2023-04-06T05:38:48;11.60;77.10
38684;DHT22;24910;53.248;-6.134;2023-04-06T05:41:33;11.60;77.20
38684;DHT22;24910;53.248;-6.134;2023-04-06T05:44:02;11.60;77.30
38684;DHT22;24910;53.248;-6.134;2023-04-06T05:46:33;11.60;77.40
38684;DHT22;24910;53.248;-6.134;2023-04-06T05:49:03;11.60;77.60
38684;DHT22;24910;53.248;-6.134;2023-04-06T05:51:35;11.60;77.70
38684;DHT22;24910;53.248;-6.134;2023-04-06T05:54:04;11.70;77.80
38684;DHT22;24910;53.248;-6.134;2023-04-06T05:56:35;11.70;78.00
38684;DHT22;24910;53.248;-6.134;2023-04-06T05:59:05;11.70;78.00
38684;DHT22;24910;53.248;-6.134;2023-04-06T06:01:35;11.70;77.90
38684;DHT22;24910;53.248;-6.134;2023-04-06T06:04:05;11.70;77.90
38684;DHT22;24910;53.248;-6.134;2023-04-06T06:06:38;11.70;77.80
38684;DHT22;24910;53.248;-6.134;2023-04-06T06:09:14;11.70;77.80
38684;DHT22;24910;53.248;-6.134;2023-04-06T06:12:01;11.70;77.90
38684;DHT22;24910;53.248;-6.134;2023-04-06T06:14:30;11.70;77.90
38684;DHT22;24910;53.248;-6.134;2023-04-06T06:16:59;11.80;78.00
38684;DHT22;24910;53.248;-6.134;2023-04-06T06:19:29;11.80;78.20
38684;DHT22;24910;53.248;-6.134;2023-04-06T06:22:02;11.80;78.30
38684;DHT22;24910;53.248;-6.134;2023-04-06T06:24:35;11.80;78.30
38684;DHT22;24910;53.248;-6.134;2023-04-06T06:27:06;11.80;78.50
38684;DHT22;24910;53.248;-6.134;2023-04-06T06:29:38;11.70;78.80
38684;DHT22;24910;53.248;-6.134;2023-04-06T06:32:07;11.70;79.10
38684;DHT22;24910;53.248;-6.134;2023-04-06T06:34:38;11.70;79.20
38684;DHT22;24910;53.248;-6.134;2023-04-06T06:37:09;11.70;79.40
38684;DHT22;24910;53.248;-6.134;2023-04-06T06:39:38;11.70;79.60
38684;DHT22;24910;53.248;-6.134;2023-04-06T06:42:10;11.70;79.80
38684;DHT22;24910;53.248;-6.134;2023-04-06T06:45:07;11.70;80.00
38684;DHT22;24910;53.248;-6.134;2023-04-06T06:47:36;11.60;80.30
38684;DHT22;24910;53.248;-6.134;2023-04-06T06:50:06;11.60;80.50
38684;DHT22;24910;53.248;-6.134;2023-04-06T06:52:35;11.60;80.70
38684;DHT22;24910;53.248;-6.134;2023-04-06T06:55:05;11.60;81.10
38684;DHT22;24910;53.248;-6.134;2023-04-06T06:57:36;11.60;81.30
38684;DHT22;24910;53.248;-6.134;2023-04-06T07:00:08;11.60;81.60
38684;DHT22;24910;53.248;-6.134;2023-04-06T07:02:41;11.70;81.90
38684;DHT22;24910;53.248;-6.134;2023-04-06T07:05:10;11.70;82.20
38684;DHT22;24910;53.248;-6.134;2023-04-06T07:07:54;11.70;82.40
38684;DHT22;24910;53.248;-6.134;2023-04-06T07:10:23;11.70;82.50
38684;DHT22;24910;53.248;-6.134;2023-04-06T07:12:55;11.70;82.70
38684;DHT22;24910;53.248;-6.134;2023-04-06T07:15:24;11.70;82.80
38684;DHT22;24910;53.248;-6.134;2023-04-06T07:17:53;11.80;83.00
38684;DHT22;24910;53.248;-6.134;2023-04-06T07:20:24;11.80;83.00
38684;DHT22;24910;53.248;-6.134;2023-04-06T07:22:53;11.70;83.10
38684;DHT22;24910;53.248;-6.134;2023-04-06T07:25:23;11.70;83.20
38684;DHT22;24910;53.248;-6.134;2023-04-06T07:27:52;11.70;83.50
38684;DHT22;24910;53.248;-6.134;2023-04-06T07:30:24;11.60;83.70
38684;DHT22;24910;53.248;-6.134;2023-04-06T07:32:54;11.60;83.90
38684;DHT22;24910;53.248;-6.134;2023-04-06T07:35:26;11.60;84.80
38684;DHT22;24910;53.248;-6.134;2023-04-06T07:37:56;11.70;84.10
38684;DHT22;24910;53.248;-6.134;2023-04-06T07:40:25;11.70;84.10
38684;DHT22;24910;53.248;-6.134;2023-04-06T07:42:56;11.70;84.20
38684;DHT22;24910;53.248;-6.134;2023-04-06T07:45:27;11.70;84.30
38684;DHT22;24910;53.248;-6.134;2023-04-06T07:47:56;11.70;84.00
38684;DHT22;24910;53.248;-6.134;2023-04-06T07:50:27;11.70;84.00
38684;DHT22;24910;53.248;-6.134;2023-04-06T07:52:57;11.70;84.30
38684;DHT22;24910;53.248;-6.134;2023-04-06T07:55:30;11.70;84.10
38684;DHT22;24910;53.248;-6.134;2023-04-06T07:58:00;11.70;84.30
38684;DHT22;24910;53.248;-6.134;2023-04-06T08:00:31;11.70;84.30
38684;DHT22;24910;53.248;-6.134;2023-04-06T08:03:03;11.70;84.50
38684;DHT22;24910;53.248;-6.134;2023-04-06T08:05:33;11.70;84.50
38684;DHT22;24910;53.248;-6.134;2023-04-06T08:08:02;11.70;84.70
38684;DHT22;24910;53.248;-6.134;2023-04-06T08:10:31;11.70;84.70
38684;DHT22;24910;53.248;-6.134;2023-04-06T08:13:02;11.70;85.00
38684;DHT22;24910;53.248;-6.134;2023-04-06T08:15:32;11.70;85.10
38684;DHT22;24910;53.248;-6.134;2023-04-06T08:18:02;11.80;85.30
38684;DHT22;24910;53.248;-6.134;2023-04-06T08:20:31;11.90;85.40
38684;DHT22;24910;53.248;-6.134;2023-04-06T08:23:00;12.10;85.60
38684;DHT22;24910;53.248;-6.134;2023-04-06T08:25:29;12.20;85.50
38684;DHT22;24910;53.248;-6.134;2023-04-06T08:27:58;12.40;85.50
38684;DHT22;24910;53.248;-6.134;2023-04-06T08:30:28;12.50;85.70
38684;DHT22;24910;53.248;-6.134;2023-04-06T08:32:59;12.70;85.80
38684;DHT22;24910;53.248;-6.134;2023-04-06T08:35:28;12.90;85.70
38684;DHT22;24910;53.248;-6.134;2023-04-06T08:37:57;13.10;85.60
38684;DHT22;24910;53.248;-6.134;2023-04-06T08:40:27;13.10;85.20
38684;DHT22;24910;53.248;-6.134;2023-04-06T08:42:59;13.20;85.00
38684;DHT22;24910;53.248;-6.134;2023-04-06T08:45:31;13.20;84.80
38684;DHT22;24910;53.248;-6.134;2023-04-06T08:48:02;13.20;84.70
38684;DHT22;24910;53.248;-6.134;2023-04-06T08:50:33;13.20;84.60
38684;DHT22;24910;53.248;-6.134;2023-04-06T08:53:02;13.20;84.60
38684;DHT22;24910;53.248;-6.134;2023-04-06T08:55:32;13.30;84.70
38684;DHT22;24910;53.248;-6.134;2023-04-06T08:58:02;13.40;84.50
38684;DHT22;24910;53.248;-6.134;2023-04-06T09:00:32;13.50;84.00
38684;DHT22;24910;53.248;-6.134;2023-04-06T09:03:03;13.50;83.80
38684;DHT22;24910;53.248;-6.134;2023-04-06T09:05:34;13.60;83.70
38684;DHT22;24910;53.248;-6.134;2023-04-06T09:08:04;13.80;84.50
38684;DHT22;24910;53.248;-6.134;2023-04-06T09:10:33;14.10;83.40
38684;DHT22;24910;53.248;-6.134;2023-04-06T09:13:04;14.30;83.00
38684;DHT22;24910;53.248;-6.134;2023-04-06T09:15:33;14.30;82.20
38684;DHT22;24910;53.248;-6.134;2023-04-06T09:18:04;14.30;81.80
38684;DHT22;24910;53.248;-6.134;2023-04-06T09:20:33;14.40;81.30
38684;DHT22;24910;53.248;-6.134;2023-04-06T09:23:02;14.40;80.70
38684;DHT22;24910;53.248;-6.134;2023-04-06T09:25:31;14.30;80.20
38684;DHT22;24910;53.248;-6.134;2023-04-06T09:28:02;14.20;79.90
38684;DHT22;24910;53.248;-6.134;2023-04-06T09:30:31;14.20;79.70
38684;DHT22;24910;53.248;-6.134;2023-04-06T09:33:00;14.20;79.50
38684;DHT22;24910;53.248;-6.134;2023-04-06T09:35:31;14.20;79.20
38684;DHT22;24910;53.248;-6.134;2023-04-06T09:38:10;14.20;78.80
38684;DHT22;24910;53.248;-6.134;2023-04-06T09:40:48;14.10;78.80
38684;DHT22;24910;53.248;-6.134;2023-04-06T09:43:28;14.20;78.80
38684;DHT22;24910;53.248;-6.134;2023-04-06T09:46:00;14.20;78.70
38684;DHT22;24910;53.248;-6.134;2023-04-06T09:48:34;14.20;78.70
38684;DHT22;24910;53.248;-6.134;2023-04-06T09:51:07;14.20;78.60
38684;DHT22;24910;53.248;-6.134;2023-04-06T09:53:39;14.30;78.30
38684;DHT22;24910;53.248;-6.134;2023-04-06T09:56:12;14.30;78.10
38684;DHT22;24910;53.248;-6.134;2023-04-06T09:58:47;14.40;77.80
38684;DHT22;24910;53.248;-6.134;2023-04-06T10:01:20;14.50;77.30
38684;DHT22;24910;53.248;-6.134;2023-04-06T10:03:55;14.60;76.70
38684;DHT22;24910;53.248;-6.134;2023-04-06T10:06:28;14.50;75.90
38684;DHT22;24910;53.248;-6.134;2023-04-06T10:09:04;14.50;76.50
38684;DHT22;24910;53.248;-6.134;2023-04-06T10:11:35;14.50;75.40
38684;DHT22;24910;53.248;-6.134;2023-04-06T10:14:05;14.50;75.00
38684;DHT22;24910;53.248;-6.134;2023-04-06T10:16:35;14.60;75.20
38684;DHT22;24910;53.248;-6.134;2023-04-06T10:19:13;14.50;75.00
38684;DHT22;24910;53.248;-6.134;2023-04-06T10:21:45;14.40;74.40
38684;DHT22;24910;53.248;-6.134;2023-04-06T10:24:15;14.20;73.90
38684;DHT22;24910;53.248;-6.134;2023-04-06T10:26:57;14.10;74.60
38684;DHT22;24910;53.248;-6.134;2023-04-06T10:29:26;14.00;73.60
38684;DHT22;24910;53.248;-6.134;2023-04-06T10:31:55;14.00;73.70
38684;DHT22;24910;53.248;-6.134;2023-04-06T10:34:34;14.10;73.80
38684;DHT22;24910;53.248;-6.134;2023-04-06T10:37:12;14.20;72.70
38684;DHT22;24910;53.248;-6.134;2023-04-06T10:39:52;14.30;72.20
38684;DHT22;24910;53.248;-6.134;2023-04-06T10:42:36;14.40;72.20
38684;DHT22;24910;53.248;-6.134;2023-04-06T10:45:07;14.50;72.10
38684;DHT22;24910;53.248;-6.134;2023-04-06T10:47:39;14.40;72.10
38684;DHT22;24910;53.248;-6.134;2023-04-06T10:50:10;14.40;72.10
38684;DHT22;24910;53.248;-6.134;2023-04-06T10:52:42;14.40;72.20
38684;DHT22;24910;53.248;-6.134;2023-04-06T10:55:13;14.30;72.10
38684;DHT22;24910;53.248;-6.134;2023-04-06T10:57:42;14.30;72.20
38684;DHT22;24910;53.248;-6.134;2023-04-06T11:00:12;14.40;72.50
38684;DHT22;24910;53.248;-6.134;2023-04-06T11:02:41;14.60;72.50
38684;DHT22;24910;53.248;-6.134;2023-04-06T11:05:11;14.70;72.20
38684;DHT22;24910;53.248;-6.134;2023-04-06T11:07:44;14.70;71.70
38684;DHT22;24910;53.248;-6.134;2023-04-06T11:10:20;14.70;71.10
38684;DHT22;24910;53.248;-6.134;2023-04-06T11:12:53;14.60;70.60
38684;DHT22;24910;53.248;-6.134;2023-04-06T11:15:22;14.60;70.40
38684;DHT22;24910;53.248;-6.134;2023-04-06T11:17:52;14.70;70.30
38684;DHT22;24910;53.248;-6.134;2023-04-06T11:20:21;14.70;70.10
38684;DHT22;24910;53.248;-6.134;2023-04-06T11:22:52;14.80;70.20
38684;DHT22;24910;53.248;-6.134;2023-04-06T11:25:21;14.80;69.80
38684;DHT22;24910;53.248;-6.134;2023-04-06T11:27:50;14.80;69.50
38684;DHT22;24910;53.248;-6.134;2023-04-06T11:30:20;14.90;69.20
38684;DHT22;24910;53.248;-6.134;2023-04-06T11:32:52;15.10;68.90
38684;DHT22;24910;53.248;-6.134;2023-04-06T11:35:31;15.10;68.00
38684;DHT22;24910;53.248;-6.134;2023-04-06T11:38:04;15.10;67.10
38684;DHT22;24910;53.248;-6.134;2023-04-06T11:40:33;15.20;67.30
38684;DHT22;24910;53.248;-6.134;2023-04-06T11:43:04;15.40;67.40
38684;DHT22;24910;53.248;-6.134;2023-04-06T11:45:40;15.60;67.20
38684;DHT22;24910;53.248;-6.134;2023-04-06T11:48:18;15.60;66.20
38684;DHT22;24910;53.248;-6.134;2023-04-06T11:50:48;15.70;65.50
38684;DHT22;24910;53.248;-6.134;2023-04-06T11:53:27;15.80;65.20
38684;DHT22;24910;53.248;-6.134;2023-04-06T11:55:57;15.80;64.80
38684;DHT22;24910;53.248;-6.134;2023-04-06T11:58:27;15.70;64.10
38684;DHT22;24910;53.248;-6.134;2023-04-06T12:01:03;15.70;64.20
38684;DHT22;24910;53.248;-6.134;2023-04-06T12:03:32;15.70;64.60
38684;DHT22;24910;53.248;-6.134;2023-04-06T12:06:02;15.90;65.00
38684;DHT22;24910;53.248;-6.134;2023-04-06T12:08:32;16.00;64.60
38684;DHT22;24910;53.248;-6.134;2023-04-06T12:11:01;16.10;63.90
38684;DHT22;24910;53.248;-6.134;2023-04-06T12:13:30;16.10;63.00
38684;DHT22;24910;53.248;-6.134;2023-04-06T12:15:59;16.10;62.40
38684;DHT22;24910;53.248;-6.134;2023-04-06T12:18:29;16.10;62.80
38684;DHT22;24910;53.248;-6.134;2023-04-06T12:20:59;16.20;63.20
38684;DHT22;24910;53.248;-6.134;2023-04-06T12:23:28;16.20;62.90
38684;DHT22;24910;53.248;-6.134;2023-04-06T12:25:58;16.30;62.60
38684;DHT22;24910;53.248;-6.134;2023-04-06T12:28:28;16.30;62.30
38684;DHT22;24910;53.248;-6.134;2023-04-06T12:30:57;16.20;61.90
38684;DHT22;24910;53.248;-6.134;2023-04-06T12:33:26;16.10;62.00
38684;DHT22;24910;53.248;-6.134;2023-04-06T12:35:56;15.90;60.70
38684;DHT22;24910;53.248;-6.134;2023-04-06T12:38:25;15.80;59.60
38684;DHT22;24910;53.248;-6.134;2023-04-06T12:40:54;15.60;59.10
38684;DHT22;24910;53.248;-6.134;2023-04-06T12:43:24;15.60;59.20
38684;DHT22;24910;53.248;-6.134;2023-04-06T12:45:53;15.60;59.70
38684;DHT22;24910;53.248;-6.134;2023-04-06T12:48:23;15.60;59.70
38684;DHT22;24910;53.248;-6.134;2023-04-06T12:50:57;15.50;59.60
38684;DHT22;24910;53.248;-6.134;2023-04-06T12:53:27;15.40;59.30
38684;DHT22;24910;53.248;-6.134;2023-04-06T12:55:56;15.30;59.50
38684;DHT22;24910;53.248;-6.134;2023-04-06T12:58:27;15.40;59.70
38684;DHT22;24910;53.248;-6.134;2023-04-06T13:00:58;15.40;60.00
38684;DHT22;24910;53.248;-6.134;2023-04-06T13:03:30;15.40;60.50
38684;DHT22;24910;53.248;-6.134;2023-04-06T13:06:00;15.50;60.90
38684;DHT22;24910;53.248;-6.134;2023-04-06T13:08:30;15.60;61.20
38684;DHT22;24910;53.248;-6.134;2023-04-06T13:10:59;15.70;61.10
38684;DHT22;24910;53.248;-6.134;2023-04-06T13:13:30;15.70;60.00
38684;DHT22;24910;53.248;-6.134;2023-04-06T13:16:00;15.60;59.20
38684;DHT22;24910;53.248;-6.134;2023-04-06T13:18:30;15.50;59.00
38684;DHT22;24910;53.248;-6.134;2023-04-06T13:21:00;15.50;59.30
38684;DHT22;24910;53.248;-6.134;2023-04-06T13:23:29;15.40;59.40
38684;DHT22;24910;53.248;-6.134;2023-04-06T13:25:58;15.40;59.50
38684;DHT22;24910;53.248;-6.134;2023-04-06T13:28:30;15.40;59.20
38684;DHT22;24910;53.248;-6.134;2023-04-06T13:31:01;15.40;58.90
38684;DHT22;24910;53.248;-6.134;2023-04-06T13:33:31;15.40;58.90
38684;DHT22;24910;53.248;-6.134;2023-04-06T13:36:00;15.40;59.00
38684;DHT22;24910;53.248;-6.134;2023-04-06T13:38:29;15.30;58.90
38684;DHT22;24910;53.248;-6.134;2023-04-06T13:40:58;15.20;58.70
38684;DHT22;24910;53.248;-6.134;2023-04-06T13:43:27;15.20;58.40
38684;DHT22;24910;53.248;-6.134;2023-04-06T13:45:58;15.10;57.80
38684;DHT22;24910;53.248;-6.134;2023-04-06T13:48:29;15.10;58.30
38684;DHT22;24910;53.248;-6.134;2023-04-06T13:50:58;15.20;58.30
38684;DHT22;24910;53.248;-6.134;2023-04-06T13:53:36;15.30;58.30
38684;DHT22;24910;53.248;-6.134;2023-04-06T13:56:08;15.40;58.00
38684;DHT22;24910;53.248;-6.134;2023-04-06T13:58:37;15.50;57.40
38684;DHT22;24910;53.248;-6.134;2023-04-06T14:01:08;15.60;57.40
38684;DHT22;24910;53.248;-6.134;2023-04-06T14:03:38;15.70;57.40
38684;DHT22;24910;53.248;-6.134;2023-04-06T14:06:11;15.80;57.20
38684;DHT22;24910;53.248;-6.134;2023-04-06T14:08:57;15.90;57.20
38684;DHT22;24910;53.248;-6.134;2023-04-06T14:11:27;16.00;57.40
38684;DHT22;24910;53.248;-6.134;2023-04-06T14:13:56;16.10;57.60
38684;DHT22;24910;53.248;-6.134;2023-04-06T14:16:27;16.20;57.30
38684;DHT22;24910;53.248;-6.134;2023-04-06T14:18:56;16.20;56.80
38684;DHT22;24910;53.248;-6.134;2023-04-06T14:21:26;16.00;56.10
38684;DHT22;24910;53.248;-6.134;2023-04-06T14:23:55;15.90;56.20
38684;DHT22;24910;53.248;-6.134;2023-04-06T14:26:26;15.80;56.40
38684;DHT22;24910;53.248;-6.134;2023-04-06T14:28:55;15.70;56.40
38684;DHT22;24910;53.248;-6.134;2023-04-06T14:31:24;15.50;56.20
38684;DHT22;24910;53.248;-6.134;2023-04-06T14:33:56;15.30;55.90
38684;DHT22;24910;53.248;-6.134;2023-04-06T14:36:25;15.10;55.80
38684;DHT22;24910;53.248;-6.134;2023-04-06T14:38:57;15.00;55.90
38684;DHT22;24910;53.248;-6.134;2023-04-06T14:41:26;15.00;56.00
38684;DHT22;24910;53.248;-6.134;2023-04-06T14:43:55;15.00;56.40
38684;DHT22;24910;53.248;-6.134;2023-04-06T14:46:24;15.10;56.50
38684;DHT22;24910;53.248;-6.134;2023-04-06T14:48:56;15.20;56.80
38684;DHT22;24910;53.248;-6.134;2023-04-06T14:51:26;15.40;57.00
38684;DHT22;24910;53.248;-6.134;2023-04-06T14:53:56;15.50;57.00
38684;DHT22;24910;53.248;-6.134;2023-04-06T14:56:25;15.60;56.80
38684;DHT22;24910;53.248;-6.134;2023-04-06T14:58:57;15.60;56.80
38684;DHT22;24910;53.248;-6.134;2023-04-06T15:01:27;15.70;56.70
38684;DHT22;24910;53.248;-6.134;2023-04-06T15:03:59;15.70;56.60
38684;DHT22;24910;53.248;-6.134;2023-04-06T15:06:28;15.70;56.60
38684;DHT22;24910;53.248;-6.134;2023-04-06T15:09:00;15.60;56.50
38684;DHT22;24910;53.248;-6.134;2023-04-06T15:11:30;15.70;56.70
38684;DHT22;24910;53.248;-6.134;2023-04-06T15:14:00;15.70;56.80
38684;DHT22;24910;53.248;-6.134;2023-04-06T15:16:29;15.70;56.60
38684;DHT22;24910;53.248;-6.134;2023-04-06T15:19:01;15.70;55.80
38684;DHT22;24910;53.248;-6.134;2023-04-06T15:21:31;15.70;55.90
38684;DHT22;24910;53.248;-6.134;2023-04-06T15:24:00;15.80;55.60
38684;DHT22;24910;53.248;-6.134;2023-04-06T15:26:29;15.70;54.50
38684;DHT22;24910;53.248;-6.134;2023-04-06T15:29:00;15.70;53.90
38684;DHT22;24910;53.248;-6.134;2023-04-06T15:31:29;15.70;53.90
38684;DHT22;24910;53.248;-6.134;2023-04-06T15:34:06;15.60;53.90
38684;DHT22;24910;53.248;-6.134;2023-04-06T15:36:36;15.60;54.50
38684;DHT22;24910;53.248;-6.134;2023-04-06T15:39:06;15.70;54.70
38684;DHT22;24910;53.248;-6.134;2023-04-06T15:41:36;15.70;54.90
38684;DHT22;24910;53.248;-6.134;2023-04-06T15:44:05;15.80;55.10